createdAt,value
2023-04-23T00:00:37.461Z,4.60
2023-04-23T00:03:10.345Z,5.47
2023-04-23T00:05:41.953Z,4.22
2023-04-23T00:08:11.265Z,4.03
2023-04-23T00:10:39.219Z,6.40
2023-04-23T00:13:07.322Z,7.72
2023-04-23T00:15:35.605Z,5.10
2023-04-23T00:18:03.408Z,6.38
2023-04-23T00:20:31.143Z,3.55
2023-04-23T00:23:00.134Z,5.25
2023-04-23T00:25:27.944Z,4.00
2023-04-23T00:27:55.569Z,4.40
2023-04-23T00:30:23.263Z,5.65
2023-04-23T00:32:51.205Z,4.30
2023-04-23T00:35:20.558Z,3.40
2023-04-23T00:37:48.354Z,4.13
2023-04-23T00:40:17.339Z,6.10
2023-04-23T00:42:46.065Z,6.05
2023-04-23T00:45:13.937Z,5.57
2023-04-23T00:47:42.031Z,4.18
2023-04-23T00:50:09.969Z,6.40
2023-04-23T00:52:39.074Z,4.78
2023-04-23T00:55:08.412Z,5.03
2023-04-23T00:57:38.736Z,4.32
2023-04-23T01:00:07.932Z,4.72
2023-04-23T01:02:36.588Z,6.35
2023-04-23T01:05:06.609Z,3.67
2023-04-23T01:07:35.886Z,3.85
2023-04-23T01:10:04.670Z,3.67
2023-04-23T01:12:32.871Z,4.03
2023-04-23T01:15:01.824Z,6.53
2023-04-23T01:17:29.783Z,4.78
2023-04-23T01:19:57.761Z,4.88
2023-04-23T01:22:26.871Z,6.57
2023-04-23T01:24:54.754Z,4.63
2023-04-23T01:27:24.776Z,5.68
2023-04-23T01:29:53.022Z,6.25
2023-04-23T01:32:21.623Z,6.82
2023-04-23T01:34:53.928Z,7.35
2023-04-23T01:37:22.172Z,7.70
2023-04-23T01:39:51.381Z,8.45
2023-04-23T01:42:19.096Z,8.70
2023-04-23T01:44:46.815Z,11.30
2023-04-23T01:47:14.648Z,8.23
2023-04-23T01:49:42.332Z,10.13
2023-04-23T01:52:10.034Z,11.40
2023-04-23T01:54:37.833Z,9.90
2023-04-23T01:57:06.925Z,9.13
2023-04-23T01:59:34.532Z,12.35
2023-04-23T02:02:02.327Z,11.27
2023-04-23T02:04:30.859Z,12.40
2023-04-23T02:06:58.597Z,13.05
2023-04-23T02:09:26.378Z,15.15
2023-04-23T02:11:53.936Z,14.05
2023-04-23T02:14:22.945Z,14.32
2023-04-23T02:16:51.562Z,13.15
2023-04-23T02:19:19.251Z,13.57
2023-04-23T02:21:46.861Z,13.88
2023-04-23T02:24:14.495Z,16.90
2023-04-23T02:26:42.054Z,15.10
2023-04-23T02:29:09.637Z,16.00
2023-04-23T02:31:38.665Z,15.32
2023-04-23T02:34:06.280Z,17.17
2023-04-23T02:36:33.940Z,17.65
2023-04-23T02:39:01.619Z,14.50
2023-04-23T02:41:29.260Z,17.45
2023-04-23T02:43:56.799Z,17.33
2023-04-23T02:46:24.400Z,15.85
2023-04-23T02:48:53.337Z,19.25
2023-04-23T02:51:21.022Z,14.90
2023-04-23T02:53:48.637Z,19.38
2023-04-23T02:56:16.290Z,17.20
2023-04-23T02:58:43.878Z,17.60
2023-04-23T03:01:11.571Z,18.50
2023-04-23T03:03:40.029Z,17.65
2023-04-23T03:06:09.726Z,17.05
2023-04-23T03:08:37.364Z,20.48
2023-04-23T03:11:05.017Z,18.40
2023-04-23T03:13:32.762Z,18.10
2023-04-23T03:16:00.813Z,17.35
2023-04-23T03:18:28.602Z,21.88
2023-04-23T03:20:56.312Z,18.88
2023-04-23T03:23:25.515Z,16.65
2023-04-23T03:25:53.224Z,20.35
2023-04-23T03:28:22.809Z,17.42
2023-04-23T03:30:50.484Z,18.25
2023-04-23T03:33:18.088Z,20.30
2023-04-23T03:35:45.896Z,20.00
2023-04-23T03:38:13.519Z,16.10
2023-04-23T03:40:42.475Z,22.20
2023-04-23T03:43:10.079Z,19.10
2023-04-23T03:45:37.722Z,16.08
2023-04-23T03:48:05.582Z,20.20
2023-04-23T03:50:34.392Z,17.58
2023-04-23T03:53:02.220Z,18.85
2023-04-23T03:55:29.838Z,18.60
2023-04-23T03:58:01.519Z,16.83
2023-04-23T04:00:29.152Z,20.38
2023-04-23T04:02:56.892Z,23.70
2023-04-23T04:05:24.857Z,18.83
2023-04-23T04:07:52.607Z,21.50
2023-04-23T04:10:20.437Z,25.90
2023-04-23T04:12:48.215Z,26.48
2023-04-23T04:15:19.821Z,22.65
2023-04-23T04:17:47.619Z,22.95
2023-04-23T04:20:15.328Z,27.05
2023-04-23T04:22:43.046Z,25.63
2023-04-23T04:25:10.881Z,28.52
2023-04-23T04:27:39.070Z,24.52
2023-04-23T04:30:08.229Z,31.77
2023-04-23T04:32:38.926Z,25.45
2023-04-23T04:35:07.670Z,26.05
2023-04-23T04:37:35.509Z,26.08
2023-04-23T04:40:04.965Z,27.08
2023-04-23T04:42:32.569Z,23.70
2023-04-23T04:45:00.736Z,23.23
2023-04-23T04:47:28.358Z,26.60
2023-04-23T04:49:57.813Z,23.15
2023-04-23T04:52:25.465Z,24.30
2023-04-23T04:54:53.133Z,25.27
2023-04-23T04:57:22.819Z,28.02
2023-04-23T04:59:50.667Z,26.77
2023-04-23T05:02:18.605Z,24.08
2023-04-23T05:04:46.265Z,28.80
2023-04-23T05:07:15.370Z,24.35
2023-04-23T05:09:45.097Z,25.92
2023-04-23T05:12:13.015Z,26.63
2023-04-23T05:14:40.903Z,26.15
2023-04-23T05:17:08.783Z,27.00
2023-04-23T05:19:36.418Z,26.50
2023-04-23T05:22:06.301Z,25.58
2023-04-23T05:24:35.269Z,24.90
2023-04-23T05:27:04.055Z,25.40
2023-04-23T05:29:31.651Z,21.67
2023-04-23T05:31:59.492Z,26.65
2023-04-23T05:34:27.348Z,28.08
2023-04-23T05:36:54.975Z,28.52
2023-04-23T05:39:22.644Z,30.27
2023-04-23T05:41:51.655Z,27.30
2023-04-23T05:44:19.335Z,24.98
2023-04-23T05:46:47.036Z,29.35
2023-04-23T05:49:14.656Z,25.23
2023-04-23T05:51:42.927Z,24.83
2023-04-23T05:54:11.190Z,24.38
2023-04-23T05:56:38.890Z,26.13
2023-04-23T05:59:07.917Z,31.13
2023-04-23T06:01:36.081Z,27.08
2023-04-23T06:04:04.083Z,29.10
2023-04-23T06:06:32.519Z,31.98
2023-04-23T06:09:00.098Z,27.88
2023-04-23T06:11:28.044Z,26.08
2023-04-23T06:13:56.513Z,26.58
2023-04-23T06:16:25.933Z,28.30
2023-04-23T06:18:54.102Z,30.40
2023-04-23T06:21:22.073Z,30.42
2023-04-23T06:23:51.262Z,26.90
2023-04-23T06:26:18.936Z,27.95
2023-04-23T06:28:47.289Z,26.42
2023-04-23T06:31:14.946Z,28.55
2023-04-23T06:33:43.917Z,29.90
2023-04-23T06:36:11.786Z,30.63
2023-04-23T06:38:39.442Z,31.83
2023-04-23T06:41:08.675Z,25.75
2023-04-23T06:43:39.386Z,29.27
2023-04-23T06:46:07.414Z,26.35
2023-04-23T06:48:35.084Z,25.67
2023-04-23T06:51:04.432Z,27.60
2023-04-23T06:53:32.292Z,27.17
2023-04-23T06:56:00.128Z,30.65
2023-04-23T06:58:31.363Z,29.33
2023-04-23T07:01:00.647Z,27.02
2023-04-23T07:03:28.811Z,27.23
2023-04-23T07:05:56.502Z,32.50
2023-04-23T07:08:25.576Z,33.25
2023-04-23T07:10:53.506Z,31.75
2023-04-23T07:13:21.255Z,28.67
2023-04-23T07:15:49.685Z,29.70
2023-04-23T07:18:17.685Z,30.75
2023-04-23T07:20:45.399Z,29.58
2023-04-23T07:23:13.085Z,29.67
2023-04-23T07:25:42.156Z,27.40
2023-04-23T07:28:09.894Z,27.30
2023-04-23T07:30:37.633Z,27.85
2023-04-23T07:33:05.329Z,23.15
2023-04-23T07:35:32.982Z,25.58
2023-04-23T07:38:00.606Z,28.67
2023-04-23T07:40:28.301Z,29.65
2023-04-23T07:42:59.166Z,27.15
2023-04-23T07:45:26.803Z,27.33
2023-04-23T07:47:54.444Z,29.98
2023-04-23T07:50:22.263Z,31.35
2023-04-23T07:52:49.938Z,26.08
2023-04-23T07:55:17.505Z,27.65
2023-04-23T07:57:45.099Z,27.70
2023-04-23T08:00:14.920Z,26.17
2023-04-23T08:02:42.693Z,31.35
2023-04-23T08:05:11.018Z,26.30
2023-04-23T08:07:39.142Z,23.85
2023-04-23T08:10:07.823Z,23.08
2023-04-23T08:12:36.016Z,25.92
2023-04-23T08:15:04.973Z,21.92
2023-04-23T08:17:33.955Z,26.70
2023-04-23T08:20:01.653Z,26.52
2023-04-23T08:22:29.383Z,21.63
2023-04-23T08:24:59.286Z,21.30
2023-04-23T08:27:30.399Z,22.00
2023-04-23T08:29:58.208Z,23.13
2023-04-23T08:32:26.696Z,19.40
2023-04-23T08:34:58.602Z,20.90
2023-04-23T08:37:31.036Z,19.42
2023-04-23T08:39:59.126Z,19.88
2023-04-23T08:42:37.240Z,19.42
2023-04-23T08:45:06.062Z,21.45
2023-04-23T08:47:35.427Z,18.20
2023-04-23T08:50:06.504Z,16.73
2023-04-23T08:52:37.476Z,16.80
2023-04-23T08:55:10.789Z,21.20
2023-04-23T08:57:41.778Z,17.42
2023-04-23T09:00:12.302Z,17.70
2023-04-23T09:02:42.121Z,18.73
2023-04-23T09:05:11.852Z,16.20
2023-04-23T09:07:43.083Z,16.88
2023-04-23T09:10:14.696Z,17.02
2023-04-23T09:12:45.543Z,18.02
2023-04-23T09:15:14.477Z,21.90
2023-04-23T09:17:44.100Z,19.05
2023-04-23T09:20:14.877Z,18.00
2023-04-23T09:22:46.216Z,15.85
2023-04-23T09:25:17.330Z,11.10
2023-04-23T09:27:46.607Z,13.15
2023-04-23T09:30:15.199Z,16.42
2023-04-23T09:32:46.789Z,16.33
2023-04-23T09:35:17.717Z,18.05
2023-04-23T09:37:49.008Z,14.93
2023-04-23T09:40:19.730Z,13.68
2023-04-23T09:42:49.524Z,15.35
2023-04-23T09:45:28.191Z,15.18
2023-04-23T09:47:59.375Z,21.05
2023-04-23T09:50:38.858Z,14.85
2023-04-23T09:53:07.586Z,14.38
2023-04-23T09:55:38.562Z,13.43
2023-04-23T09:58:08.091Z,12.90
2023-04-23T10:00:37.520Z,14.45
2023-04-23T10:03:06.733Z,13.48
2023-04-23T10:05:59.691Z,12.43
2023-04-23T10:08:29.122Z,9.65
2023-04-23T10:11:06.573Z,11.68
2023-04-23T10:13:44.451Z,13.38
2023-04-23T10:16:22.284Z,12.50
2023-04-23T10:18:52.779Z,8.63
2023-04-23T10:21:34.018Z,10.70
2023-04-23T10:24:07.212Z,10.55
2023-04-23T10:26:37.855Z,9.35
2023-04-23T10:29:11.474Z,9.38
2023-04-23T10:31:39.792Z,11.82
2023-04-23T10:34:08.301Z,11.65
2023-04-23T10:36:38.415Z,11.25
2023-04-23T10:39:09.403Z,10.32
2023-04-23T10:41:39.917Z,8.52
2023-04-23T10:44:12.146Z,10.88
2023-04-23T10:46:39.971Z,8.25
2023-04-23T10:49:16.111Z,9.80
2023-04-23T10:52:17.954Z,10.15
2023-04-23T10:54:36.395Z,10.85
2023-04-23T10:57:06.289Z,8.98
2023-04-23T10:59:35.329Z,8.23
2023-04-23T11:02:07.717Z,8.40
2023-04-23T11:04:37.179Z,11.65
2023-04-23T11:07:09.952Z,8.57
2023-04-23T11:09:42.632Z,8.10
2023-04-23T11:12:12.741Z,9.30
2023-04-23T11:14:48.156Z,9.07
2023-04-23T11:17:17.768Z,8.98
2023-04-23T11:20:10.128Z,10.20
2023-04-23T11:22:40.595Z,8.77
2023-04-23T11:25:11.233Z,8.25
2023-04-23T11:27:42.886Z,6.95
2023-04-23T11:30:13.851Z,6.13
2023-04-23T11:32:42.207Z,9.52
2023-04-23T11:35:13.604Z,7.70
2023-04-23T11:37:45.093Z,11.85
2023-04-23T11:40:18.972Z,9.15
2023-04-23T11:42:48.001Z,5.68
2023-04-23T11:45:16.918Z,7.93
2023-04-23T11:47:44.853Z,7.50
2023-04-23T11:50:18.387Z,7.07
2023-04-23T11:52:47.887Z,9.18
2023-04-23T11:55:17.253Z,6.93
2023-04-23T11:57:46.445Z,8.35
2023-04-23T12:00:17.099Z,6.45
2023-04-23T12:02:52.063Z,5.78
2023-04-23T12:05:22.322Z,6.22
2023-04-23T12:07:52.853Z,4.68
2023-04-23T12:10:21.418Z,5.95
2023-04-23T12:12:53.389Z,4.63
2023-04-23T12:15:21.730Z,4.50
2023-04-23T12:17:51.200Z,6.60
2023-04-23T12:20:22.201Z,5.65
2023-04-23T12:22:49.836Z,4.68
2023-04-23T12:25:23.789Z,7.00
2023-04-23T12:27:51.371Z,5.35
2023-04-23T12:30:19.015Z,5.65
2023-04-23T12:32:46.601Z,5.72
2023-04-23T12:35:14.383Z,5.90
2023-04-23T12:37:41.999Z,6.47
2023-04-23T12:40:10.727Z,8.35
2023-04-23T12:42:39.739Z,4.60
2023-04-23T12:45:10.715Z,5.07
2023-04-23T12:47:38.425Z,5.72
2023-04-23T12:50:07.145Z,5.93
2023-04-23T12:52:34.752Z,10.52
2023-04-23T12:55:04.796Z,12.45
2023-04-23T12:57:32.523Z,11.43
2023-04-23T13:00:01.476Z,7.18
2023-04-23T13:02:29.137Z,5.55
2023-04-23T13:05:00.872Z,5.68
2023-04-23T13:07:28.923Z,7.25
2023-04-23T13:09:57.381Z,6.18
2023-04-23T13:12:25.105Z,6.97
2023-04-23T13:14:52.775Z,7.57
2023-04-23T13:17:23.088Z,6.35
2023-04-23T13:19:50.851Z,5.43
2023-04-23T13:22:18.561Z,7.18
2023-04-23T13:24:46.279Z,4.13
2023-04-23T13:27:13.903Z,3.53
2023-04-23T13:29:41.948Z,6.32
2023-04-23T13:32:09.749Z,3.85
2023-04-23T13:34:38.866Z,4.07
2023-04-23T13:37:09.181Z,4.78
2023-04-23T13:39:37.902Z,6.60
2023-04-23T13:42:10.026Z,10.25
2023-04-23T13:44:37.923Z,4.78
2023-04-23T13:47:05.743Z,5.88
2023-04-23T13:49:35.857Z,5.07
2023-04-23T13:52:06.773Z,4.00
2023-04-23T13:54:35.543Z,2.92
2023-04-23T13:57:03.479Z,3.65
2023-04-23T13:59:31.112Z,3.17
2023-04-23T14:01:58.720Z,2.55
2023-04-23T14:04:26.964Z,1.60
2023-04-23T14:06:54.794Z,2.70
2023-04-23T14:09:23.736Z,3.33
2023-04-23T14:11:51.448Z,4.20
2023-04-23T14:14:19.225Z,4.28
2023-04-23T14:16:46.830Z,2.03
2023-04-23T14:19:14.460Z,3.80
2023-04-23T14:21:42.223Z,3.85
2023-04-23T14:24:17.567Z,2.40
2023-04-23T14:26:49.777Z,3.78
2023-04-23T14:29:26.064Z,3.53
2023-04-23T14:31:53.826Z,4.68
2023-04-23T14:34:22.050Z,3.15
2023-04-23T14:36:52.847Z,2.42
2023-04-23T14:39:24.344Z,5.78
2023-04-23T14:41:53.981Z,1.67
2023-04-23T14:44:23.229Z,2.10
2023-04-23T14:46:51.193Z,2.65
2023-04-23T14:49:18.955Z,2.97
2023-04-23T14:51:46.567Z,4.38
2023-04-23T14:54:14.486Z,4.78
2023-04-23T14:56:43.002Z,3.90
2023-04-23T14:59:11.880Z,2.83
2023-04-23T15:01:39.472Z,2.45
2023-04-23T15:04:07.153Z,4.15
2023-04-23T15:06:34.856Z,2.65
2023-04-23T15:09:02.553Z,1.80
2023-04-23T15:11:30.376Z,1.67
2023-04-23T15:14:04.229Z,1.83
2023-04-23T15:16:48.339Z,2.33
2023-04-23T15:19:18.873Z,3.65
2023-04-23T15:21:46.864Z,2.47
2023-04-23T15:24:14.853Z,3.20
2023-04-23T15:26:42.624Z,2.95
2023-04-23T15:29:10.593Z,3.28
2023-04-23T15:31:39.761Z,3.60
2023-04-23T15:34:08.962Z,1.45
2023-04-23T15:36:38.354Z,3.03
2023-04-23T15:39:07.579Z,1.60
2023-04-23T15:41:39.515Z,1.98
2023-04-23T15:44:10.621Z,2.17
2023-04-23T15:46:39.653Z,2.22
2023-04-23T15:49:07.597Z,2.55
2023-04-23T15:51:35.442Z,1.42
2023-04-23T15:54:03.120Z,1.52
2023-04-23T15:56:30.780Z,1.77
2023-04-23T15:58:58.571Z,1.45
2023-04-23T16:01:27.530Z,2.90
2023-04-23T16:04:08.468Z,4.70
2023-04-23T16:06:38.188Z,2.55
2023-04-23T16:09:08.346Z,3.25
2023-04-23T16:11:36.770Z,4.30
2023-04-23T16:14:05.329Z,3.90
2023-04-23T16:16:32.999Z,2.47
2023-04-23T16:19:03.292Z,3.25
2023-04-23T16:21:31.170Z,3.10
2023-04-23T16:23:58.983Z,2.95
2023-04-23T16:26:26.694Z,2.22
2023-04-23T16:29:05.545Z,2.47
2023-04-23T16:31:41.914Z,2.88
2023-04-23T16:34:10.865Z,2.63
2023-04-23T16:36:38.620Z,2.25
2023-04-23T16:39:06.358Z,2.03
2023-04-23T16:41:33.937Z,2.80
2023-04-23T16:44:02.034Z,2.85
2023-04-23T16:46:31.633Z,3.22
2023-04-23T16:49:00.333Z,2.15
2023-04-23T16:51:29.661Z,2.88
2023-04-23T16:53:57.800Z,2.50
2023-04-23T16:56:25.937Z,1.48
2023-04-23T16:58:54.630Z,3.63
2023-04-23T17:01:25.345Z,3.97
2023-04-23T17:03:53.149Z,2.70
2023-04-23T17:06:26.847Z,2.08
2023-04-23T17:08:59.474Z,3.25
2023-04-23T17:11:28.568Z,2.78
2023-04-23T17:13:57.592Z,4.22
2023-04-23T17:16:26.633Z,3.00
2023-04-23T17:18:58.558Z,3.17
2023-04-23T17:21:27.270Z,3.38
2023-04-23T17:23:55.879Z,3.47
2023-04-23T17:26:26.903Z,3.35
2023-04-23T17:28:54.893Z,3.00
2023-04-23T17:31:22.960Z,3.83
2023-04-23T17:33:55.293Z,3.17
2023-04-23T17:36:22.988Z,3.58
2023-04-23T17:38:50.912Z,4.05
2023-04-23T17:41:19.041Z,2.70
2023-04-23T17:43:49.360Z,4.32
2023-04-23T17:46:17.269Z,2.60
2023-04-23T17:48:46.497Z,3.05
2023-04-23T17:51:14.079Z,3.17
2023-04-23T17:53:48.545Z,14.27
2023-04-23T17:56:16.807Z,5.10
2023-04-23T17:58:45.306Z,5.13
2023-04-23T18:01:15.410Z,6.60
2023-04-23T18:03:44.492Z,6.60
2023-04-23T18:06:13.090Z,5.55
2023-04-23T18:08:42.829Z,4.07
2023-04-23T18:11:11.040Z,4.38
2023-04-23T18:13:39.212Z,4.50
2023-04-23T18:16:07.340Z,11.23
2023-04-23T18:18:36.693Z,7.28
2023-04-23T18:21:05.875Z,3.63
2023-04-23T18:23:36.171Z,4.80
2023-04-23T18:26:04.830Z,4.93
2023-04-23T18:28:34.734Z,5.07
2023-04-23T18:31:03.259Z,5.45
2023-04-23T18:33:33.603Z,3.33
2023-04-23T18:36:09.255Z,3.67
2023-04-23T18:38:39.891Z,6.57
2023-04-23T18:41:07.812Z,5.45
2023-04-23T18:43:36.198Z,4.60
2023-04-23T18:46:04.257Z,5.57
2023-04-23T18:48:42.802Z,5.70
2023-04-23T18:51:21.548Z,4.63
2023-04-23T18:53:49.931Z,5.88
2023-04-23T18:56:17.636Z,6.18
2023-04-23T18:58:45.552Z,5.05
2023-04-23T19:01:13.414Z,5.30
2023-04-23T19:03:44.870Z,6.40
2023-04-23T19:06:13.595Z,5.00
2023-04-23T19:08:44.127Z,6.00
2023-04-23T19:11:11.989Z,6.38
2023-04-23T19:13:39.843Z,4.95
2023-04-23T19:16:09.460Z,4.13
2023-04-23T19:18:37.452Z,4.82
2023-04-23T19:21:05.622Z,5.80
2023-04-23T19:23:35.210Z,5.75
2023-04-23T19:26:04.673Z,5.05
2023-04-23T19:28:32.801Z,5.25
2023-04-23T19:31:00.573Z,5.18
2023-04-23T19:33:28.734Z,4.03
2023-04-23T19:35:57.226Z,5.03
2023-04-23T19:38:25.454Z,7.25
2023-04-23T19:40:54.591Z,4.82
2023-04-23T19:43:23.713Z,5.85
2023-04-23T19:45:51.900Z,4.75
2023-04-23T19:48:19.776Z,5.45
2023-04-23T19:50:48.601Z,6.32
2023-04-23T19:53:18.486Z,3.85
2023-04-23T19:55:46.355Z,4.70
2023-04-23T19:58:15.957Z,6.50
2023-04-23T20:00:46.032Z,6.05
2023-04-23T20:03:13.842Z,5.45
2023-04-23T20:05:42.468Z,4.38
2023-04-23T20:08:15.495Z,5.47
2023-04-23T20:10:43.404Z,5.82
2023-04-23T20:13:13.545Z,5.93
2023-04-23T20:15:41.113Z,6.05
2023-04-23T20:18:12.746Z,3.67
2023-04-23T20:20:41.983Z,6.40
2023-04-23T20:23:09.756Z,4.97
2023-04-23T20:25:37.468Z,4.30
2023-04-23T20:28:05.691Z,5.07
2023-04-23T20:30:37.960Z,4.78
2023-04-23T20:33:07.013Z,7.25
2023-04-23T20:35:38.490Z,4.32
2023-04-23T20:38:06.203Z,6.43
2023-04-23T20:40:34.414Z,6.40
2023-04-23T20:43:04.211Z,4.38
2023-04-23T20:45:32.489Z,4.47
2023-04-23T20:48:02.447Z,6.15
2023-04-23T20:50:30.374Z,6.45
2023-04-23T20:53:01.921Z,6.18
2023-04-23T20:55:31.988Z,7.20
2023-04-23T20:58:00.734Z,6.35
2023-04-23T21:00:29.223Z,5.15
2023-04-23T21:02:57.320Z,5.47
2023-04-23T21:05:27.041Z,4.65
2023-04-23T21:07:55.175Z,5.85
2023-04-23T21:10:24.274Z,4.70
2023-04-23T21:12:52.176Z,4.68
2023-04-23T21:15:20.157Z,6.35
2023-04-23T21:17:47.786Z,5.45
2023-04-23T21:20:15.473Z,6.55
2023-04-23T21:22:43.639Z,4.70
2023-04-23T21:25:14.620Z,5.22
2023-04-23T21:27:45.442Z,4.95
2023-04-23T21:30:24.448Z,5.05
2023-04-23T21:32:52.743Z,7.15
2023-04-23T21:35:21.930Z,9.68
2023-04-23T21:37:52.308Z,4.32
2023-04-23T21:40:20.110Z,4.57
2023-04-23T21:42:50.370Z,4.00
2023-04-23T21:45:18.202Z,3.55
2023-04-23T21:47:45.898Z,4.93
2023-04-23T21:50:13.593Z,3.78
2023-04-23T21:52:43.048Z,4.38
2023-04-23T21:55:12.072Z,4.95
2023-04-23T21:57:40.264Z,3.35
2023-04-23T22:00:13.982Z,3.75
2023-04-23T22:02:46.409Z,3.65
2023-04-23T22:05:19.952Z,3.15
2023-04-23T22:07:48.835Z,4.15
2023-04-23T22:10:17.838Z,4.30
2023-04-23T22:12:54.797Z,2.90
2023-04-23T22:15:25.253Z,2.58
2023-04-23T22:17:54.247Z,2.47
2023-04-23T22:20:23.771Z,3.55
2023-04-23T22:22:51.363Z,3.33
2023-04-23T22:25:19.412Z,3.78
2023-04-23T22:27:47.070Z,2.97
2023-04-23T22:30:15.324Z,2.30
2023-04-23T22:32:44.320Z,1.85
2023-04-23T22:35:12.001Z,2.05
2023-04-23T22:37:39.896Z,3.28
2023-04-23T22:40:10.436Z,3.05
2023-04-23T22:42:38.273Z,2.05
2023-04-23T22:45:06.998Z,1.40
2023-04-23T22:47:34.882Z,1.48
2023-04-23T22:50:04.778Z,1.55
2023-04-23T22:52:32.711Z,1.60
2023-04-23T22:55:00.314Z,1.50
2023-04-23T22:57:27.971Z,2.90
2023-04-23T22:59:55.627Z,1.73
2023-04-23T23:02:23.340Z,1.77
2023-04-23T23:04:51.061Z,2.13
2023-04-23T23:07:20.009Z,1.33
2023-04-23T23:09:47.854Z,2.33
2023-04-23T23:12:15.459Z,1.77
2023-04-23T23:14:43.441Z,3.03
2023-04-23T23:17:11.118Z,1.98
2023-04-23T23:19:38.705Z,1.33
2023-04-23T23:22:06.444Z,2.90
2023-04-23T23:24:35.556Z,1.75
2023-04-23T23:27:03.772Z,2.72
2023-04-23T23:29:31.393Z,1.23
2023-04-23T23:31:59.889Z,2.90
2023-04-23T23:34:27.492Z,1.83
2023-04-23T23:36:56.111Z,0.93
2023-04-23T23:39:24.118Z,2.42
2023-04-23T23:41:53.087Z,1.05
2023-04-23T23:44:20.823Z,0.80
2023-04-23T23:46:48.794Z,1.17
2023-04-23T23:49:16.440Z,0.85
2023-04-23T23:51:44.056Z,1.13
2023-04-23T23:54:11.778Z,1.23
2023-04-23T23:56:39.525Z,0.73
2023-04-23T23:59:08.589Z,1.20
